createdAt,value
2023-03-05T00:01:43.104Z,96624.22
2023-03-05T00:04:15.669Z,96634.22
2023-03-05T00:06:44.761Z,96638.44
2023-03-05T00:09:13.618Z,96635.94
2023-03-05T00:11:42.820Z,96632.75
2023-03-05T00:14:12.668Z,96652.19
2023-03-05T00:16:41.864Z,96645.72
2023-03-05T00:19:12.066Z,96645.47
2023-03-05T00:21:42.629Z,96645.47
2023-03-05T00:24:14.725Z,96647.66
2023-03-05T00:26:44.054Z,96642.84
2023-03-05T00:29:16.394Z,96642.63
2023-03-05T00:31:47.076Z,96641.38
2023-03-05T00:34:18.238Z,96648.41
2023-03-05T00:36:52.598Z,96654.53
2023-03-05T00:39:22.742Z,96640.84
2023-03-05T00:41:51.574Z,96655.97
2023-03-05T00:44:20.560Z,96644.28
2023-03-05T00:46:49.472Z,96652.25
2023-03-05T00:49:18.476Z,96649.16
2023-03-05T00:51:47.254Z,96655.03
2023-03-05T00:54:16.115Z,96665.84
2023-03-05T00:56:45.566Z,96656.63
2023-03-05T00:59:14.362Z,96659.81
2023-03-05T01:01:43.571Z,96655.94
2023-03-05T01:04:12.988Z,96653.13
2023-03-05T01:06:45.215Z,96665.69
2023-03-05T01:09:15.748Z,96670.19
2023-03-05T01:11:44.517Z,96661.69
2023-03-05T01:14:13.296Z,96673.44
2023-03-05T01:16:42.074Z,96671.84
2023-03-05T01:19:12.674Z,96672.03
2023-03-05T01:21:42.123Z,96677.44
2023-03-05T01:24:11.386Z,96681.91
2023-03-05T01:26:40.173Z,96682.88
2023-03-05T01:29:08.931Z,96683.94
2023-03-05T01:31:37.797Z,96692.19
2023-03-05T01:34:06.782Z,96691.25
2023-03-05T01:36:35.610Z,96694.75
2023-03-05T01:39:04.549Z,96708.09
2023-03-05T01:41:34.488Z,96693.69
2023-03-05T01:44:03.764Z,96695.34
2023-03-05T01:46:37.530Z,96695.91
2023-03-05T01:49:16.208Z,96697.78
2023-03-05T01:51:57.077Z,96711.50
2023-03-05T01:54:40.313Z,96711.25
2023-03-05T01:57:16.983Z,96709.13
2023-03-05T01:59:48.626Z,96695.13
2023-03-05T02:02:20.468Z,96710.13
2023-03-05T02:04:55.567Z,96707.25
2023-03-05T02:07:25.133Z,96712.47
2023-03-05T02:09:54.090Z,96711.66
2023-03-05T02:12:23.329Z,96711.22
2023-03-05T02:15:13.310Z,96718.25
2023-03-05T02:17:42.094Z,96714.16
2023-03-05T02:20:17.562Z,96731.22
2023-03-05T02:22:46.763Z,96703.63
2023-03-05T02:25:30.317Z,96733.03
2023-03-05T02:28:14.040Z,96746.63
2023-03-05T02:30:43.264Z,96738.72
2023-03-05T02:33:12.216Z,96727.41
2023-03-05T02:35:41.587Z,96743.88
2023-03-05T02:38:12.053Z,96733.31
2023-03-05T02:40:41.134Z,96736.53
2023-03-05T02:43:10.863Z,96724.97
2023-03-05T02:45:40.585Z,96712.47
2023-03-05T02:48:09.344Z,96721.28
2023-03-05T02:50:40.279Z,96726.13
2023-03-05T02:53:09.311Z,96724.25
2023-03-05T02:55:39.093Z,96725.63
2023-03-05T02:58:07.962Z,96716.38
2023-03-05T03:00:37.150Z,96725.69
2023-03-05T03:03:06.572Z,96716.69
2023-03-05T03:05:36.621Z,96734.19
2023-03-05T03:08:05.734Z,96722.31
2023-03-05T03:10:34.669Z,96722.25
2023-03-05T03:13:03.806Z,96724.97
2023-03-05T03:15:32.623Z,96731.38
2023-03-05T03:18:01.423Z,96735.38
2023-03-05T03:20:30.472Z,96729.06
2023-03-05T03:22:59.225Z,96715.38
2023-03-05T03:25:28.074Z,96723.34
2023-03-05T03:27:56.921Z,96709.94
2023-03-05T03:30:25.688Z,96730.69
2023-03-05T03:32:54.414Z,96727.63
2023-03-05T03:35:23.294Z,96714.31
2023-03-05T03:37:52.143Z,96718.56
2023-03-05T03:40:21.063Z,96717.50
2023-03-05T03:42:52.806Z,96722.34
2023-03-05T03:45:22.885Z,96717.13
2023-03-05T03:47:52.797Z,96734.34
2023-03-05T03:50:22.313Z,96702.47
2023-03-05T03:52:51.405Z,96690.66
2023-03-05T03:55:20.202Z,96723.81
2023-03-05T03:57:49.145Z,96722.53
2023-03-05T04:00:19.368Z,96716.69
2023-03-05T04:02:48.323Z,96706.88
2023-03-05T04:05:17.292Z,96719.91
2023-03-05T04:07:46.086Z,96707.09
2023-03-05T04:10:14.873Z,96707.31
2023-03-05T04:12:44.122Z,96694.66
2023-03-05T04:15:13.162Z,96699.75
2023-03-05T04:17:41.986Z,96708.34
2023-03-05T04:20:11.601Z,96706.47
2023-03-05T04:22:40.453Z,96722.34
2023-03-05T04:25:10.280Z,96702.72
2023-03-05T04:27:40.746Z,96706.72
2023-03-05T04:30:15.341Z,96710.78
2023-03-05T04:32:44.249Z,96703.69
2023-03-05T04:35:13.103Z,96695.78
2023-03-05T04:37:41.813Z,96714.50
2023-03-05T04:40:11.873Z,96709.88
2023-03-05T04:42:40.953Z,96709.78
2023-03-05T04:45:10.338Z,96708.09
2023-03-05T04:47:39.215Z,96709.03
2023-03-05T04:50:08.762Z,96712.72
2023-03-05T04:52:42.210Z,96712.94
2023-03-05T04:55:15.877Z,96706.25
2023-03-05T04:57:45.221Z,96711.50
2023-03-05T05:00:17.339Z,96695.75
2023-03-05T05:02:48.868Z,96711.38
2023-03-05T05:05:20.804Z,96713.16
2023-03-05T05:07:49.580Z,96716.09
2023-03-05T05:10:18.420Z,96702.13
2023-03-05T05:12:47.299Z,96696.75
2023-03-05T05:15:16.359Z,96700.84
2023-03-05T05:17:45.268Z,96692.44
2023-03-05T05:20:15.795Z,96697.59
2023-03-05T05:22:45.076Z,96708.53
2023-03-05T05:25:13.890Z,96694.06
2023-03-05T05:27:42.739Z,96677.38
2023-03-05T05:30:12.171Z,96665.66
2023-03-05T05:32:41.130Z,96683.00
2023-03-05T05:35:11.316Z,96683.13
2023-03-05T05:37:40.089Z,96682.31
2023-03-05T05:40:10.223Z,96678.59
2023-03-05T05:42:39.129Z,96677.69
2023-03-05T05:45:08.688Z,96679.69
2023-03-05T05:47:37.740Z,96673.66
2023-03-05T05:50:08.378Z,96664.28
2023-03-05T05:52:37.054Z,96678.97
2023-03-05T05:55:06.282Z,96689.72
2023-03-05T05:57:35.963Z,96685.47
2023-03-05T06:00:09.298Z,96673.97
2023-03-05T06:02:41.552Z,96679.66
2023-03-05T06:05:13.577Z,96661.41
2023-03-05T06:07:42.411Z,96660.72
2023-03-05T06:10:12.049Z,96675.47
2023-03-05T06:12:41.175Z,96649.13
2023-03-05T06:15:10.537Z,96660.25
2023-03-05T06:17:39.433Z,96653.38
2023-03-05T06:20:09.314Z,96676.63
2023-03-05T06:22:39.932Z,96680.72
2023-03-05T06:25:09.908Z,96669.69
2023-03-05T06:27:39.869Z,96666.16
2023-03-05T06:30:09.514Z,96661.78
2023-03-05T06:32:38.554Z,96670.44
2023-03-05T06:35:07.495Z,96659.84
2023-03-05T06:37:36.333Z,96674.97
2023-03-05T06:40:06.134Z,96670.50
2023-03-05T06:42:35.908Z,96652.41
2023-03-05T06:45:05.225Z,96656.47
2023-03-05T06:47:34.494Z,96659.00
2023-03-05T06:50:03.265Z,96646.81
2023-03-05T06:52:32.216Z,96650.50
2023-03-05T06:55:00.940Z,96643.38
2023-03-05T06:57:29.825Z,96651.16
2023-03-05T06:59:58.436Z,96646.38
2023-03-05T07:02:28.469Z,96643.19
2023-03-05T07:04:57.391Z,96650.81
2023-03-05T07:07:26.123Z,96639.88
2023-03-05T07:09:56.254Z,96638.00
2023-03-05T07:12:25.084Z,96640.53
2023-03-05T07:14:53.834Z,96654.63
2023-03-05T07:17:22.539Z,96650.66
2023-03-05T07:19:51.309Z,96652.16
2023-03-05T07:22:20.113Z,96649.88
2023-03-05T07:24:48.793Z,96643.13
2023-03-05T07:27:17.563Z,96652.50
2023-03-05T07:29:46.545Z,96641.78
2023-03-05T07:32:15.318Z,96660.63
2023-03-05T07:34:44.063Z,96649.16
2023-03-05T07:37:14.074Z,96652.13
2023-03-05T07:39:42.872Z,96657.34
2023-03-05T07:42:11.622Z,96656.50
2023-03-05T07:44:53.294Z,96648.00
2023-03-05T07:47:23.849Z,96656.69
2023-03-05T07:49:52.727Z,96659.47
2023-03-05T07:52:21.616Z,96673.31
2023-03-05T07:54:50.560Z,96677.31
2023-03-05T07:57:19.261Z,96671.84
2023-03-05T07:59:48.040Z,96666.63
2023-03-05T08:02:17.300Z,96662.00
2023-03-05T08:04:46.662Z,96655.13
2023-03-05T08:07:17.059Z,96648.78
2023-03-05T08:09:45.842Z,96658.50
2023-03-05T08:12:14.626Z,96664.97
2023-03-05T08:14:43.496Z,96658.84
2023-03-05T08:17:12.252Z,96660.69
2023-03-05T08:19:41.014Z,96647.94
2023-03-05T08:22:09.821Z,96662.03
2023-03-05T08:24:38.600Z,96665.34
2023-03-05T08:27:07.381Z,96647.06
2023-03-05T08:29:36.397Z,96656.19
2023-03-05T08:32:05.687Z,96673.91
2023-03-05T08:34:34.545Z,96667.59
2023-03-05T08:37:03.203Z,96663.66
2023-03-05T08:39:32.205Z,96654.13
2023-03-05T08:42:00.990Z,96656.22
2023-03-05T08:44:29.740Z,96657.66
2023-03-05T08:46:58.538Z,96656.19
2023-03-05T08:49:27.218Z,96655.50
2023-03-05T08:51:55.996Z,96657.44
2023-03-05T08:54:24.798Z,96660.88
2023-03-05T08:56:53.543Z,96660.22
2023-03-05T08:59:22.277Z,96666.22
2023-03-05T09:01:52.419Z,96665.19
2023-03-05T09:04:21.471Z,96655.22
2023-03-05T09:06:50.159Z,96652.19
2023-03-05T09:09:21.845Z,96656.28
2023-03-05T09:11:52.530Z,96655.72
2023-03-05T09:14:21.596Z,96651.72
2023-03-05T09:16:50.270Z,96663.44
2023-03-05T09:19:18.997Z,96661.88
2023-03-05T09:21:48.162Z,96666.31
2023-03-05T09:24:17.068Z,96642.28
2023-03-05T09:26:45.816Z,96662.03
2023-03-05T09:29:14.538Z,96652.47
2023-03-05T09:31:44.669Z,96668.56
2023-03-05T09:34:13.546Z,96656.16
2023-03-05T09:36:42.297Z,96645.88
2023-03-05T09:39:11.220Z,96659.06
2023-03-05T09:42:17.091Z,96664.91
2023-03-05T09:44:48.886Z,96664.13
2023-03-05T09:47:26.580Z,96649.88
2023-03-05T09:50:17.165Z,96661.22
2023-03-05T09:52:58.796Z,96657.97
2023-03-05T09:55:51.404Z,96648.94
2023-03-05T09:58:34.756Z,96648.88
2023-03-05T10:01:11.523Z,96648.72
2023-03-05T10:04:13.235Z,96653.81
2023-03-05T10:06:51.540Z,96654.47
2023-03-05T10:09:52.071Z,96650.09
2023-03-05T10:12:43.557Z,96648.84
2023-03-05T10:15:52.407Z,96646.84
2023-03-05T10:18:30.718Z,96653.75
2023-03-05T10:21:03.210Z,96647.59
2023-03-05T10:23:44.373Z,96653.28
2023-03-05T10:26:22.329Z,96655.06
2023-03-05T10:29:20.060Z,96646.44
2023-03-05T10:32:04.204Z,96646.47
2023-03-05T10:34:54.310Z,96656.13
2023-03-05T10:37:34.250Z,96648.44
2023-03-05T10:40:41.210Z,96646.47
2023-03-05T10:43:25.495Z,96661.19
2023-03-05T10:45:55.843Z,96654.19
2023-03-05T10:48:47.706Z,96654.13
2023-03-05T10:51:29.976Z,96650.00
2023-03-05T10:54:19.981Z,96648.09
2023-03-05T10:56:49.035Z,96643.47
2023-03-05T10:59:18.601Z,96648.66
2023-03-05T11:02:05.899Z,96645.13
2023-03-05T11:04:37.938Z,96650.06
2023-03-05T11:07:16.727Z,96644.09
2023-03-05T11:10:16.380Z,96644.88
2023-03-05T11:12:46.331Z,96657.09
2023-03-05T11:15:15.783Z,96651.53
2023-03-05T11:17:49.722Z,96659.88
2023-03-05T11:20:35.439Z,96661.38
2023-03-05T11:23:18.862Z,96654.47
2023-03-05T11:26:16.867Z,96649.16
2023-03-05T11:29:16.661Z,96648.81
2023-03-05T11:31:45.440Z,96653.94
2023-03-05T11:34:20.399Z,96650.22
2023-03-05T11:36:55.067Z,96646.47
2023-03-05T11:39:26.133Z,96653.19
2023-03-05T11:42:00.854Z,96652.66
2023-03-05T11:44:44.629Z,96652.88
2023-03-05T11:47:52.864Z,96648.91
2023-03-05T11:50:27.814Z,96648.81
2023-03-05T11:53:05.429Z,96646.06
2023-03-05T11:55:43.026Z,96653.38
2023-03-05T11:58:48.581Z,96653.28
2023-03-05T12:01:23.356Z,96653.75
2023-03-05T12:03:54.373Z,96647.34
2023-03-05T12:06:34.585Z,96648.63
2023-03-05T12:09:14.256Z,96653.06
2023-03-05T12:11:43.752Z,96635.91
2023-03-05T12:14:27.989Z,96646.69
2023-03-05T12:16:59.783Z,96644.31
2023-03-05T12:19:29.109Z,96644.78
2023-03-05T12:21:58.411Z,96643.66
2023-03-05T12:24:28.525Z,96636.34
2023-03-05T12:27:03.506Z,96643.31
2023-03-05T12:29:45.728Z,96645.25
2023-03-05T12:32:23.680Z,96640.81
2023-03-05T12:35:01.423Z,96641.81
2023-03-05T12:37:33.376Z,96635.91
2023-03-05T12:40:20.142Z,96638.53
2023-03-05T12:43:04.988Z,96639.22
2023-03-05T12:45:41.604Z,96636.75
2023-03-05T12:48:12.771Z,96631.16
2023-03-05T12:50:41.688Z,96637.66
2023-03-05T12:53:16.667Z,96631.84
2023-03-05T12:55:48.124Z,96634.00
2023-03-05T12:58:22.735Z,96628.19
2023-03-05T13:01:18.105Z,96630.81
2023-03-05T13:03:55.958Z,96632.41
2023-03-05T13:06:28.776Z,96632.88
2023-03-05T13:09:09.890Z,96634.34
2023-03-05T13:11:39.842Z,96627.88
2023-03-05T13:14:32.678Z,96638.53
2023-03-05T13:17:02.749Z,96631.16
2023-03-05T13:19:34.346Z,96631.41
2023-03-05T13:22:11.593Z,96600.94
2023-03-05T13:24:40.402Z,96623.78
2023-03-05T13:27:30.501Z,96625.81
2023-03-05T13:29:59.234Z,96620.81
2023-03-05T13:32:31.102Z,96619.44
2023-03-05T13:35:02.366Z,96616.28
2023-03-05T13:37:36.381Z,96614.13
2023-03-05T13:40:27.168Z,96618.78
2023-03-05T13:43:09.226Z,96620.50
2023-03-05T13:45:38.360Z,96618.56
2023-03-05T13:48:08.528Z,96619.22
2023-03-05T13:50:42.649Z,96617.63
2023-03-05T13:53:44.837Z,96616.84
2023-03-05T13:56:20.031Z,96618.44
2023-03-05T13:58:56.876Z,96614.13
2023-03-05T14:01:43.085Z,96616.03
2023-03-05T14:04:15.418Z,96612.53
2023-03-05T14:07:08.262Z,96612.63
2023-03-05T14:09:48.412Z,96602.28
2023-03-05T14:12:44.051Z,96606.38
2023-03-05T14:15:23.742Z,96608.63
2023-03-05T14:17:54.379Z,96584.66
2023-03-05T14:20:25.006Z,96606.59
2023-03-05T14:23:26.744Z,96603.84
2023-03-05T14:26:29.000Z,96611.78
2023-03-05T14:29:03.950Z,96602.00
2023-03-05T14:31:39.803Z,96596.00
2023-03-05T14:34:08.820Z,96600.53
2023-03-05T14:36:39.652Z,96600.44
2023-03-05T14:39:09.141Z,96601.81
2023-03-05T14:41:40.200Z,96602.47
2023-03-05T14:44:14.418Z,96596.78
2023-03-05T14:46:44.893Z,96596.56
2023-03-05T14:49:13.761Z,96589.31
2023-03-05T14:51:45.577Z,96593.41
2023-03-05T14:54:27.068Z,96587.63
2023-03-05T14:56:56.276Z,96567.63
2023-03-05T14:59:25.633Z,96588.78
2023-03-05T15:01:54.991Z,96577.31
2023-03-05T15:04:24.668Z,96582.31
2023-03-05T15:06:54.405Z,96578.88
2023-03-05T15:09:23.467Z,96583.31
2023-03-05T15:11:52.276Z,96564.91
2023-03-05T15:14:21.033Z,96564.59
2023-03-05T15:16:50.196Z,96574.13
2023-03-05T15:19:19.574Z,96556.50
2023-03-05T15:21:48.568Z,96564.44
2023-03-05T15:24:17.319Z,96575.34
2023-03-05T15:26:45.985Z,96563.41
2023-03-05T15:29:15.019Z,96570.41
2023-03-05T15:31:45.383Z,96571.69
2023-03-05T15:34:14.185Z,96570.97
2023-03-05T15:36:42.928Z,96560.41
2023-03-05T15:39:12.487Z,96565.84
2023-03-05T15:41:41.322Z,96566.28
2023-03-05T15:44:10.209Z,96549.56
2023-03-05T15:46:39.057Z,96554.94
2023-03-05T15:49:07.854Z,96550.06
2023-03-05T15:51:36.682Z,96540.44
2023-03-05T15:54:06.142Z,96538.19
2023-03-05T15:56:35.264Z,96535.25
2023-03-05T15:59:04.453Z,96544.69
2023-03-05T16:01:33.922Z,96527.09
2023-03-05T16:04:03.575Z,96524.59
2023-03-05T16:06:34.447Z,96525.41
2023-03-05T16:09:06.151Z,96530.06
2023-03-05T16:11:38.663Z,96512.56
2023-03-05T16:14:10.848Z,96516.56
2023-03-05T16:16:39.948Z,96514.97
2023-03-05T16:19:12.537Z,96511.78
2023-03-05T16:21:41.534Z,96507.81
2023-03-05T16:24:10.497Z,96483.38
2023-03-05T16:26:41.463Z,96499.94
2023-03-05T16:29:10.449Z,96502.81
2023-03-05T16:31:42.027Z,96483.41
2023-03-05T16:34:11.134Z,96484.31
2023-03-05T16:36:41.553Z,96481.59
2023-03-05T16:39:10.447Z,96481.72
2023-03-05T16:41:39.283Z,96472.06
2023-03-05T16:44:08.281Z,96476.38
2023-03-05T16:46:37.790Z,96480.47
2023-03-05T16:49:07.061Z,96471.81
2023-03-05T16:51:36.530Z,96464.22
2023-03-05T16:54:05.262Z,96465.25
2023-03-05T16:56:34.591Z,96449.59
2023-03-05T16:59:03.452Z,96456.06
2023-03-05T17:01:32.660Z,96453.34
2023-03-05T17:04:02.708Z,96447.91
2023-03-05T17:06:33.771Z,96448.69
2023-03-05T17:09:04.065Z,96442.44
2023-03-05T17:11:32.976Z,96428.84
2023-03-05T17:14:04.560Z,96417.56
2023-03-05T17:16:34.157Z,96427.88
2023-03-05T17:19:02.990Z,96424.25
2023-03-05T17:21:31.853Z,96419.09
2023-03-05T17:24:00.769Z,96422.06
2023-03-05T17:26:29.497Z,96423.75
2023-03-05T17:28:58.648Z,96422.72
2023-03-05T17:31:27.540Z,96410.84
2023-03-05T17:33:57.381Z,96408.66
2023-03-05T17:36:26.775Z,96421.72
2023-03-05T17:38:55.679Z,96404.03
2023-03-05T17:41:24.829Z,96407.00
2023-03-05T17:43:53.594Z,96403.69
2023-03-05T17:46:22.387Z,96390.31
2023-03-05T17:48:51.365Z,96395.47
2023-03-05T17:51:21.531Z,96390.38
2023-03-05T17:53:51.668Z,96374.69
2023-03-05T17:56:23.103Z,96388.53
2023-03-05T17:58:53.441Z,96385.13
2023-03-05T18:01:31.688Z,96379.66
2023-03-05T18:04:00.764Z,96379.19
2023-03-05T18:06:29.920Z,96370.88
2023-03-05T18:08:58.713Z,96367.25
2023-03-05T18:11:28.197Z,96369.81
2023-03-05T18:13:57.500Z,96373.66
2023-03-05T18:16:26.491Z,96369.63
2023-03-05T18:18:55.246Z,96353.72
2023-03-05T18:21:25.929Z,96358.56
2023-03-05T18:23:55.175Z,96352.03
2023-03-05T18:26:23.952Z,96359.44
2023-03-05T18:28:53.380Z,96341.91
2023-03-05T18:31:22.180Z,96350.00
2023-03-05T18:33:51.565Z,96343.66
2023-03-05T18:36:20.454Z,96338.19
2023-03-05T18:38:49.342Z,96329.88
2023-03-05T18:41:27.695Z,96323.72
2023-03-05T18:43:56.953Z,96322.44
2023-03-05T18:46:27.235Z,96320.06
2023-03-05T18:48:56.142Z,96313.88
2023-03-05T18:51:26.898Z,96320.38
2023-03-05T18:53:58.421Z,96321.09
2023-03-05T18:56:27.176Z,96313.78
2023-03-05T18:58:57.961Z,96293.06
2023-03-05T19:01:28.562Z,96305.34
2023-03-05T19:03:57.948Z,96295.31
2023-03-05T19:06:27.372Z,96297.00
2023-03-05T19:08:59.175Z,96298.88
2023-03-05T19:11:27.997Z,96300.00
2023-03-05T19:13:57.578Z,96296.13
2023-03-05T19:16:31.015Z,96291.69
2023-03-05T19:19:14.330Z,96289.63
2023-03-05T19:21:50.327Z,96273.59
2023-03-05T19:24:19.159Z,96271.53
2023-03-05T19:26:48.678Z,96277.88
2023-03-05T19:29:17.492Z,96285.88
2023-03-05T19:31:46.351Z,96275.22
2023-03-05T19:34:15.294Z,96267.44
2023-03-05T19:36:44.141Z,96260.50
2023-03-05T19:39:13.450Z,96267.16
2023-03-05T19:41:42.267Z,96258.81
2023-03-05T19:44:13.067Z,96251.53
2023-03-05T19:46:42.585Z,96245.22
2023-03-05T19:49:12.435Z,96252.13
2023-03-05T19:51:43.254Z,96259.00
2023-03-05T19:54:14.192Z,96257.19
2023-03-05T19:56:44.694Z,96246.16
2023-03-05T19:59:17.753Z,96241.97
2023-03-05T20:01:47.597Z,96239.38
2023-03-05T20:04:22.328Z,96242.28
2023-03-05T20:06:51.235Z,96231.03
2023-03-05T20:09:20.539Z,96229.25
2023-03-05T20:11:49.326Z,96225.03
2023-03-05T20:14:18.112Z,96215.66
2023-03-05T20:16:46.910Z,96194.63
2023-03-05T20:19:18.951Z,96206.50
2023-03-05T20:21:48.789Z,96208.13
2023-03-05T20:24:20.001Z,96209.22
2023-03-05T20:26:49.470Z,96199.03
2023-03-05T20:29:20.405Z,96197.25
2023-03-05T20:31:50.649Z,96187.59
2023-03-05T20:34:20.554Z,96204.88
2023-03-05T20:36:49.850Z,96204.34
2023-03-05T20:39:19.110Z,96197.50
2023-03-05T20:41:48.631Z,96188.50
2023-03-05T20:44:17.975Z,96190.94
2023-03-05T20:47:00.199Z,96188.63
2023-03-05T20:49:30.476Z,96179.47
2023-03-05T20:51:59.337Z,96158.13
2023-03-05T20:54:28.668Z,96179.16
2023-03-05T20:56:57.333Z,96178.09
2023-03-05T20:59:26.364Z,96170.44
2023-03-05T21:01:56.127Z,96168.00
2023-03-05T21:04:25.488Z,96157.00
2023-03-05T21:06:54.895Z,96148.84
2023-03-05T21:09:23.815Z,96142.81
2023-03-05T21:11:52.552Z,96132.63
2023-03-05T21:14:21.288Z,96129.47
2023-03-05T21:16:50.161Z,96116.63
2023-03-05T21:19:18.872Z,96120.28
2023-03-05T21:21:47.657Z,96118.16
2023-03-05T21:24:17.656Z,96115.22
2023-03-05T21:26:46.466Z,96097.84
2023-03-05T21:29:15.256Z,96095.09
2023-03-05T21:31:44.791Z,96101.88
2023-03-05T21:34:15.184Z,96087.41
2023-03-05T21:36:44.150Z,96091.56
2023-03-05T21:39:12.910Z,96071.84
2023-03-05T21:41:41.667Z,96076.28
2023-03-05T21:44:11.912Z,96068.91
2023-03-05T21:46:40.807Z,96056.34
2023-03-05T21:49:09.551Z,96055.25
2023-03-05T21:51:50.017Z,96044.00
2023-03-05T21:54:18.848Z,96054.31
2023-03-05T21:56:47.675Z,96051.47
2023-03-05T21:59:16.837Z,96024.94
2023-03-05T22:01:46.397Z,96040.19
2023-03-05T22:04:16.297Z,96038.91
2023-03-05T22:06:45.280Z,96032.41
2023-03-05T22:09:14.605Z,96023.78
2023-03-05T22:11:44.210Z,96025.06
2023-03-05T22:14:13.199Z,96031.41
2023-03-05T22:16:41.922Z,96034.31
2023-03-05T22:19:11.083Z,96026.22
2023-03-05T22:21:39.878Z,96024.41
2023-03-05T22:24:08.891Z,96017.28
2023-03-05T22:26:40.833Z,96010.69
2023-03-05T22:29:12.357Z,96001.25
2023-03-05T22:31:41.956Z,96002.53
2023-03-05T22:34:11.230Z,96003.09
2023-03-05T22:36:40.113Z,95992.13
2023-03-05T22:39:08.873Z,95985.09
2023-03-05T22:41:37.794Z,95974.63
2023-03-05T22:44:07.313Z,95966.19
2023-03-05T22:46:36.387Z,95970.38
2023-03-05T22:49:05.150Z,95970.09
2023-03-05T22:51:34.331Z,95972.22
2023-03-05T22:54:03.325Z,95962.25
2023-03-05T22:56:32.135Z,95961.53
2023-03-05T22:59:00.848Z,95952.84
2023-03-05T23:01:30.175Z,95955.47
2023-03-05T23:04:05.967Z,95958.56
2023-03-05T23:06:34.998Z,95944.97
2023-03-05T23:09:04.467Z,95947.28
2023-03-05T23:11:33.407Z,95937.31
2023-03-05T23:14:02.150Z,95929.72
2023-03-05T23:16:30.920Z,95930.94
2023-03-05T23:18:59.909Z,95923.56
2023-03-05T23:21:28.644Z,95916.94
2023-03-05T23:23:58.410Z,95922.09
2023-03-05T23:26:27.163Z,95904.44
2023-03-05T23:28:56.099Z,95901.22
2023-03-05T23:31:25.078Z,95901.44
2023-03-05T23:33:53.911Z,95900.03
2023-03-05T23:36:26.665Z,95891.09
2023-03-05T23:38:58.143Z,95889.25
2023-03-05T23:41:26.940Z,95880.06
2023-03-05T23:43:55.749Z,95876.13
2023-03-05T23:46:25.376Z,95869.56
2023-03-05T23:48:54.123Z,95877.13
2023-03-05T23:51:22.892Z,95865.09
2023-03-05T23:53:51.648Z,95858.00
2023-03-05T23:56:20.369Z,95851.41
2023-03-05T23:58:49.395Z,95848.25
